Flight Track Log - Related Links

Times and Time Zones

All times are in EDT time to prevent confusion due to time zone crossing. See the FIV606 flight status page for this flight to view local times or setup timezone preferences in your user account.

Time Position Orientation Groundspeed Altitude Reporting Facility
EDT Latitude Longitude Course Direction KTS MPH feet Rate Location/Type
Wed 02:03:51 PM 40.8833 -74.0500 270° West 187 215 1,400  Level New TRACON
Wed 02:04:51 PM 40.9333 -74.0500 360° North 250 288 2,100 1,500 Climbing New TRACON
Wed 02:05:51 PM 40.9000 -74.1333 242° Southwest 237 273 4,400 2,850 Climbing New TRACON
Wed 02:06:51 PM 40.8667 -74.2167 242° Southwest 273 314 7,800 2,450 Climbing New TRACON
Wed 02:07:51 PM 40.8333 -74.3000 242° Southwest 285 328 9,300 2,350 Climbing New TRACON
Wed 02:08:51 PM 40.8333 -74.4167 270° West 314 361 12,500 2,702 Climbing New TRACON
Wed 02:09:00 PM 40.8000 -74.8619 270° West  Level FlightAware
Wed 02:10:42 PM 40.8586 -74.6394 279° West 327 376 17,000  Level New Center
Wed 02:11:43 PM 40.8442 -74.7622 261° West 361 415 17,000 496 Level New Center
Wed 02:12:43 PM 40.8283 -74.9175 262° West 396 456 18,000 1,881 Climbing New Center
Wed 02:13:41 PM 40.8108 -75.0592 261° West 404 465 20,700 2,622 Climbing New Center
Wed 02:14:42 PM 40.7928 -75.2086 261° West 409 471 23,200 2,231 Climbing New Center
Wed 02:15:42 PM 40.7708 -75.3444 258° West 415 478 25,200 1,835 Climbing New Center
Wed 02:16:43 PM 40.7256 -75.4944 248° West 415 478 26,900 1,686 Climbing New Center
Wed 02:17:43 PM 40.6717 -75.6358 243° Southwest 415 478 28,600 1,576 Climbing New Center
Wed 02:18:41 PM 40.6181 -75.7769 243° Southwest 432 497 30,000 1,462 Climbing New Center
Wed 02:19:42 PM 40.5636 -75.9233 244° Southwest 439 505 31,500 1,450 Climbing New Center
Wed 02:20:41 PM 40.5050 -76.0719 243° Southwest 448 516 32,900 1,400 Climbing New Center
Wed 02:21:42 PM 40.4486 -76.2147 243° Southwest 448 516 34,300 1,388 Climbing New Center
Wed 02:22:42 PM 40.3958 -76.3606 245° Southwest 453 521 35,700 1,388 Climbing New Center
Wed 02:23:43 PM 40.3369 -76.5028 242° Southwest 453 521 37,100 1,339 Climbing New Center
Wed 02:24:43 PM 40.2844 -76.6400 243° Southwest 440 506 38,400 1,119 Climbing New Center
Wed 02:25:41 PM 40.2297 -76.7714 241° Southwest 427 491 39,300 814 Climbing New Center
Wed 02:26:41 PM 40.1808 -76.9111 245° Southwest 422 486 40,000 344 Climbing New Center
Wed 02:27:43 PM 40.1750 -77.0628 267° West 408 470 40,000  Level New Center
Wed 02:28:43 PM 40.1747 -77.2231 270° West 422 486 40,000  Level New Center
Wed 02:30:45 PM 40.1789 -77.5531 271° West 462 532 40,000  Level Cleveland Center
Wed 02:31:45 PM 40.1789 -77.7108 270° West 452 520 40,000  Level Cleveland Center
Wed 02:32:46 PM 40.1789 -77.8739 270° West 447 514 40,000  Level Cleveland Center
Wed 02:33:45 PM 40.1739 -78.0208 267° West 454 522 40,000  Level Cleveland Center
Wed 02:34:45 PM 40.1711 -78.1783 269° West 454 522 40,000  Level Cleveland Center
Wed 02:35:45 PM 40.1703 -78.3414 270° West 454 522 40,000  Level Cleveland Center
Wed 02:36:45 PM 40.1692 -78.5019 270° West 448 516 40,000  Level Cleveland Center
Wed 02:37:45 PM 40.1678 -78.6622 269° West 448 516 40,000  Level Cleveland Center
Wed 02:38:45 PM 40.1661 -78.8225 269° West 443 510 40,000  Level Cleveland Center
Wed 02:39:45 PM 40.1622 -78.9803 268° West 443 510 40,000  Level Cleveland Center
Wed 02:40:45 PM 40.1603 -79.1461 269° West 443 510 40,000  Level Cleveland Center
Wed 02:41:45 PM 40.1603 -79.3200 270° West 448 516 40,000  Level Cleveland Center
Wed 02:42:45 PM 40.1575 -79.4639 269° West 448 516 40,000  Level Cleveland Center
Wed 02:43:45 PM 40.1547 -79.6242 269° West 448 516 40,000  Level Cleveland Center
Wed 02:44:45 PM 40.1519 -79.7844 269° West 443 510 40,000  Level Cleveland Center
Wed 02:45:45 PM 40.1489 -79.9447 269° West 443 510 40,000  Level Cleveland Center
Wed 02:46:46 PM 40.1433 -80.1050 267° West 443 510 40,000  Level Cleveland Center
Wed 02:47:45 PM 40.1397 -80.2653 268° West 443 510 40,000  Level Cleveland Center
Wed 02:48:45 PM 40.1358 -80.4256 268° West 443 510 40,000  Level Cleveland Center
Wed 02:49:46 PM 40.1317 -80.5858 268° West 443 510 40,000  Level Cleveland Center
Wed 02:50:45 PM 40.1275 -80.7461 268° West 443 510 40,000  Level Cleveland Center
Wed 02:51:45 PM 40.1208 -80.9061 267° West 443 510 40,000  Level Cleveland Center
Wed 02:53:16 PM 40.1094 -81.1564 267° West 440 506 40,000  Level Indianapolis Center
Wed 02:54:18 PM 40.1042 -81.3178 268° West 440 506 40,000  Level Indianapolis Center
Wed 02:55:20 PM 40.0989 -81.4794 268° West 442 509 40,000  Level Indianapolis Center
Wed 02:56:22 PM 40.0917 -81.6408 267° West 442 509 40,000  Level Indianapolis Center
Wed 02:57:24 PM 40.0853 -81.8189 267° West 443 510 40,000  Level Indianapolis Center
Wed 02:58:26 PM 40.0789 -81.9833 267° West 450 518 40,000  Level Indianapolis Center
Wed 02:59:28 PM 40.0722 -82.1450 267° West 445 512 40,000  Level Indianapolis Center
Wed 03:00:30 PM 40.0653 -82.3083 267° West 446 513 40,000  Level Indianapolis Center
Wed 03:01:32 PM 40.0578 -82.4697 267° West 443 510 40,000  Level Indianapolis Center
Wed 03:02:34 PM 40.0503 -82.6314 267° West 443 510 40,000  Level Indianapolis Center
Wed 03:03:37 PM 40.0417 -82.8178 267° West 439 505 40,000  Level Indianapolis Center
Wed 03:04:39 PM 40.0336 -82.9781 266° West 440 506 40,000  Level Indianapolis Center
Wed 03:05:41 PM 40.0256 -83.1372 266° West 438 504 40,000  Level Indianapolis Center
Wed 03:06:43 PM 40.0175 -83.2961 266° West 438 504 40,000  Level Indianapolis Center
Wed 03:07:45 PM 40.0094 -83.4536 266° West 438 504 40,000  Level Indianapolis Center
Wed 03:08:47 PM 40.0006 -83.6106 266° West 440 506 40,000  Level Indianapolis Center
Wed 03:09:49 PM 39.9903 -83.7942 266° West 439 505 40,000  Level Indianapolis Center
Wed 03:10:51 PM 39.9806 -83.9531 265° West 437 503 40,000  Level Indianapolis Center
Wed 03:11:53 PM 39.9714 -84.1111 266° West 437 503 40,000  Level Indianapolis Center
Wed 03:12:55 PM 39.9619 -84.2686 266° West 434 499 40,000  Level Indianapolis Center
Wed 03:13:57 PM 39.9514 -84.4269 265° West 436 502 40,000  Level Indianapolis Center
Wed 03:14:59 PM 39.9417 -84.5850 265° West 435 501 40,000  Level Indianapolis Center
Wed 03:16:01 PM 39.9297 -84.7683 265° West 433 498 40,000  Level Indianapolis Center
Wed 03:17:03 PM 39.9200 -84.9061 265° West 434 499 40,000  Level Indianapolis Center
Wed 03:18:05 PM 39.9094 -85.0942 266° West 436 502 40,000  Level Indianapolis Center
Wed 03:19:07 PM 39.8972 -85.2506 264° West 435 501 40,000  Level Indianapolis Center
Wed 03:20:09 PM 39.8869 -85.4064 265° West 434 499 40,000  Level Indianapolis Center
Wed 03:21:11 PM 39.8750 -85.5614 264° West 433 498 40,000  Level Indianapolis Center
Wed 03:22:13 PM 39.8644 -85.7147 265° West 429 494 40,000  Level Indianapolis Center
Wed 03:23:15 PM 39.8536 -85.8678 265° West 428 493 40,000  Level Indianapolis Center
Wed 03:24:17 PM 39.8397 -86.0500 264° West 425 489 40,000  Level Indianapolis Center
Wed 03:25:20 PM 39.8272 -86.2039 264° West 424 488 40,000  Level Indianapolis Center
Wed 03:26:22 PM 39.8142 -86.3578 264° West 427 491 40,000  Level Indianapolis Center
Wed 03:27:24 PM 39.7894 -86.5272 259° West 433 498 40,000  Level Indianapolis Center
Wed 03:28:26 PM 39.7658 -86.6800 259° West 435 501 40,000  Level Indianapolis Center
Wed 03:29:28 PM 39.7422 -86.8328 259° West 434 499 40,000  Level Indianapolis Center
Wed 03:30:30 PM 39.7178 -86.9872 258° West 438 504 40,000  Level Indianapolis Center
Wed 03:31:32 PM 39.6925 -87.1408 258° West 439 505 40,000  Level Indianapolis Center
Wed 03:32:34 PM 39.6633 -87.3242 258° West 434 499 40,000 -194 Level Indianapolis Center
Wed 03:33:36 PM 39.6383 -87.4761 258° West 433 498 39,600 -968 Descending Indianapolis Center
Wed 03:34:38 PM 39.6133 -87.6258 258° West 427 491 38,000 -2,081 Descending Indianapolis Center
Wed 03:35:40 PM 39.5892 -87.7717 258° West 417 480 35,300 -2,479 Descending Indianapolis Center
Wed 03:36:39 PM 39.5650 -87.9144 258° West 416 479 33,000 -2,033 Descending Kansas Center
Wed 03:37:41 PM 39.5400 -88.0636 258° West 420 483 31,200 -1,887 Descending Kansas Center
Wed 03:38:43 PM 39.5094 -88.2492 258° West 433 498 29,100 -1,839 Descending Kansas Center
Wed 03:39:45 PM 39.4828 -88.4033 257° West 437 503 27,400 -1,645 Descending Kansas Center
Wed 03:40:47 PM 39.4561 -88.5519 257° West 431 496 25,700 -1,452 Descending Kansas Center
Wed 03:41:49 PM 39.4331 -88.6894 258° West 429 494 24,400 -1,210 Descending Kansas Center
Wed 03:42:51 PM 39.4061 -88.8414 257° West 416 479 23,200 -1,113 Descending Kansas Center
Wed 03:43:53 PM 39.3819 -88.9814 257° West 405 466 22,100 -1,452 Descending Kansas Center
Wed 03:44:55 PM 39.3514 -89.1467 257° West 398 458 20,200 -1,887 Descending Kansas Center
Wed 03:45:57 PM 39.3278 -89.2794 257° West 387 445 18,200 -1,887 Descending Kansas Center
Wed 03:46:59 PM 39.3047 -89.4106 257° West 379 436 16,300 -1,790 Descending Kansas Center
Wed 03:48:01 PM 39.2808 -89.5389 257° West 373 429 14,500 -1,694 Descending Kansas Center
Wed 03:49:03 PM 39.2589 -89.6608 257° West 358 412 12,800 -1,210 Descending Kansas Center
Wed 03:50:05 PM 39.2225 -89.7697 247° West 345 397 12,000 -387 Descending Kansas Center
Wed 03:51:07 PM 39.1594 -89.8986 238° Southwest 354 407 12,000  Level Kansas Center
Wed 03:52:09 PM 39.1069 -90.0014 237° Southwest 351 404 12,000  Level Kansas Center
Wed 03:53:11 PM 39.0469 -90.0958 231° Southwest 349 402 12,000 -823 Level Kansas Center
Wed 03:54:13 PM 38.9772 -90.1592 215° Southwest 319 367 10,300 -1,839 Descending Kansas Center
Wed 03:55:15 PM 38.9117 -90.2183 215° Southwest 302 348 8,200 -2,064 Descending Kansas Center
Wed 03:56:18 PM 38.8497 -90.2742 215° Southwest 287 330 6,000 -2,016 Descending Kansas Center
Wed 03:57:20 PM 38.7778 -90.3389 215° Southwest 273 314 4,000 -968 Descending Kansas Center
Wed 03:58:22 PM 38.7189 -90.3936 216° Southwest 269 310 4,000 -484 Level Kansas Center
Wed 03:59:24 PM 38.6875 -90.4686 242° Southwest 260 299 3,000 -1,113 Descending Kansas Center
Wed 04:00:26 PM 38.6736 -90.5639 259° West 240 276 1,700 -1,016 Descending Kansas Center
Wed 04:01:28 PM 38.6653 -90.6150 258° West 178 205 900 -581 Descending Kansas Center
Wed 04:02:30 PM 38.6594 -90.6511 258° West 131 151 500 -387 Descending Kansas Center

Login

Don't have an account? Register now (free) for customized features, flight alerts, and more!